Time;durP1;ratioP1;P1;durP2;ratioP2;P2;SDS_P1;SDS_P2;PMS_P1;PMS_P2;Temp;Humidity;BMP_temperature;BMP_pressure;BME280_temperature;BME280_humidity;BME280_pressure;Samples;Min_cycle;Max_cycle;Signal;HPM_P1;HPM_P2
2022/05/24 00:00:00;;;;;;;2.0;1.8;;;;;;;15.7;100.0;99850;;;;
2022/05/24 00:01:00;;;;;;;2.0;1.8;;;;;;;15.7;100.0;99850;;;;
2022/05/24 00:02:00;;;;;;;2.0;1.8;;;;;;;15.8;100.0;99850;;;;
2022/05/24 00:03:00;;;;;;;2.0;1.8;;;;;;;15.8;100.0;99850;;;;
2022/05/24 00:04:00;;;;;;;2.0;1.8;;;;;;;15.8;100.0;99860;;;;
2022/05/24 00:05:00;;;;;;;2.0;1.8;;;;;;;15.8;100.0;99860;;;;
2022/05/24 00:06:00;;;;;;;2.0;1.8;;;;;;;15.7;100.0;99850;;;;
2022/05/24 00:07:00;;;;;;;0.6;0.6;;;;;;;15.7;100.0;99850;;;;
2022/05/24 00:08:00;;;;;;;0.6;0.6;;;;;;;15.6;100.0;99860;;;;
2022/05/24 00:09:05;;;;;;;0.6;0.6;;;;;;;15.6;100.0;99860;;;;
2022/05/24 00:10:00;;;;;;;0.6;0.6;;;;;;;15.6;100.0;99860;;;;
2022/05/24 00:11:00;;;;;;;0.6;0.6;;;;;;;15.6;100.0;99860;;;;
2022/05/24 00:12:00;;;;;;;0.6;0.6;;;;;;;15.7;100.0;99860;;;;
2022/05/24 00:13:00;;;;;;;0.6;0.6;;;;;;;15.7;100.0;99860;;;;
2022/05/24 00:14:00;;;;;;;0.6;0.6;;;;;;;15.6;100.0;99850;;;;
2022/05/24 00:16:00;;;;;;;0.6;0.6;;;;;;;15.6;100.0;99850;;;;
2022/05/24 00:17:00;;;;;;;0.6;0.6;;;;;;;15.6;100.0;99850;;;;
2022/05/24 00:18:02;;;;;;;0.6;0.6;;;;;;;15.7;100.0;99850;;;;
2022/05/24 00:19:00;;;;;;;0.6;0.6;;;;;;;15.7;100.0;99850;;;;
2022/05/24 00:20:00;;;;;;;0.6;0.6;;;;;;;15.6;100.0;99850;;;;
2022/05/24 00:21:01;;;;;;;0.6;0.6;;;;;;;15.6;100.0;99850;;;;
2022/05/24 00:22:00;;;;;;;0.6;0.6;;;;;;;15.6;100.0;99830;;;;
2022/05/24 00:23:00;;;;;;;0.6;0.6;;;;;;;15.6;100.0;99830;;;;
2022/05/24 00:24:00;;;;;;;0.6;0.6;;;;;;;15.5;100.0;99840;;;;
2022/05/24 00:25:01;;;;;;;0.6;0.6;;;;;;;15.5;100.0;99840;;;;
2022/05/24 00:26:01;;;;;;;0.6;0.6;;;;;;;15.6;100.0;99830;;;;
2022/05/24 00:27:00;;;;;;;2.6;1.1;;;;;;;15.6;100.0;99830;;;;
2022/05/24 00:28:00;;;;;;;2.6;1.1;;;;;;;15.4;100.0;99840;;;;
2022/05/24 00:29:00;;;;;;;2.6;1.1;;;;;;;15.4;100.0;99840;;;;
2022/05/24 00:30:00;;;;;;;2.6;1.1;;;;;;;15.3;100.0;99840;;;;
2022/05/24 00:31:00;;;;;;;2.6;1.1;;;;;;;15.3;100.0;99840;;;;
2022/05/24 00:32:00;;;;;;;2.6;1.1;;;;;;;15.3;100.0;99840;;;;
2022/05/24 00:33:00;;;;;;;2.6;1.1;;;;;;;15.3;100.0;99840;;;;
2022/05/24 00:34:00;;;;;;;2.6;1.1;;;;;;;15.4;100.0;99840;;;;
2022/05/24 00:35:00;;;;;;;2.6;1.1;;;;;;;15.4;100.0;99840;;;;
2022/05/24 00:36:00;;;;;;;2.6;1.1;;;;;;;15.3;100.0;99850;;;;
2022/05/24 00:37:00;;;;;;;2.6;1.1;;;;;;;15.3;100.0;99850;;;;
2022/05/24 00:38:00;;;;;;;2.6;1.1;;;;;;;15.3;100.0;99850;;;;
2022/05/24 00:39:00;;;;;;;2.6;1.1;;;;;;;15.3;100.0;99850;;;;
2022/05/24 00:40:00;;;;;;;2.6;1.1;;;;;;;15.3;100.0;99860;;;;
2022/05/24 00:41:06;;;;;;;2.6;1.1;;;;;;;15.3;100.0;99860;;;;
2022/05/24 00:42:04;;;;;;;2.6;1.1;;;;;;;15.2;100.0;99860;;;;
2022/05/24 00:43:04;;;;;;;2.6;1.1;;;;;;;15.2;100.0;99860;;;;
2022/05/24 00:44:01;;;;;;;2.6;1.1;;;;;;;15.2;100.0;99860;;;;
2022/05/24 00:45:01;;;;;;;2.6;1.1;;;;;;;15.2;100.0;99860;;;;
2022/05/24 00:46:03;;;;;;;2.6;1.1;;;;;;;15.2;100.0;99850;;;;
2022/05/24 00:47:06;;;;;;;0.9;0.9;;;;;;;15.2;100.0;99850;;;;
2022/05/24 00:48:05;;;;;;;0.9;0.9;;;;;;;15.4;100.0;99840;;;;
2022/05/24 00:49:04;;;;;;;0.9;0.9;;;;;;;15.4;100.0;99840;;;;
2022/05/24 00:50:07;;;;;;;0.9;0.9;;;;;;;15.3;100.0;99840;;;;
2022/05/24 00:51:01;;;;;;;0.9;0.9;;;;;;;15.3;100.0;99840;;;;
2022/05/24 00:52:09;;;;;;;0.9;0.9;;;;;;;15.3;100.0;99840;;;;
2022/05/24 00:53:04;;;;;;;0.9;0.9;;;;;;;15.3;100.0;99840;;;;
2022/05/24 00:54:00;;;;;;;0.9;0.9;;;;;;;15.1;100.0;99840;;;;
2022/05/24 00:55:00;;;;;;;0.9;0.9;;;;;;;15.1;100.0;99840;;;;
2022/05/24 00:56:10;;;;;;;0.9;0.9;;;;;;;15.1;100.0;99840;;;;
2022/05/24 00:57:04;;;;;;;0.9;0.9;;;;;;;15.1;100.0;99840;;;;
2022/05/24 00:58:01;;;;;;;0.9;0.9;;;;;;;15.0;100.0;99840;;;;
2022/05/24 00:59:03;;;;;;;0.9;0.9;;;;;;;15.0;100.0;99840;;;;
2022/05/24 01:00:01;;;;;;;0.9;0.9;;;;;;;14.9;100.0;99850;;;;
2022/05/24 01:01:02;;;;;;;0.9;0.9;;;;;;;14.9;100.0;99850;;;;
2022/05/24 01:02:00;;;;;;;0.9;0.9;;;;;;;14.9;100.0;99850;;;;
2022/05/24 01:03:00;;;;;;;0.9;0.9;;;;;;;14.9;100.0;99850;;;;
2022/05/24 01:04:00;;;;;;;0.9;0.9;;;;;;;14.8;100.0;99850;;;;
2022/05/24 01:05:00;;;;;;;0.9;0.9;;;;;;;14.8;100.0;99850;;;;
2022/05/24 01:06:00;;;;;;;0.9;0.9;;;;;;;15.0;100.0;99850;;;;
2022/05/24 01:07:00;;;;;;;0.6;0.6;;;;;;;15.0;100.0;99850;;;;
2022/05/24 01:08:00;;;;;;;0.6;0.6;;;;;;;14.9;100.0;99860;;;;
2022/05/24 01:09:02;;;;;;;0.6;0.6;;;;;;;14.9;100.0;99860;;;;
2022/05/24 01:10:02;;;;;;;0.6;0.6;;;;;;;14.8;100.0;99860;;;;
2022/05/24 01:11:01;;;;;;;0.6;0.6;;;;;;;14.8;100.0;99860;;;;
2022/05/24 01:12:06;;;;;;;0.6;0.6;;;;;;;14.9;100.0;99860;;;;
2022/05/24 01:13:03;;;;;;;0.6;0.6;;;;;;;14.9;100.0;99860;;;;
2022/05/24 01:14:01;;;;;;;0.6;0.6;;;;;;;14.8;100.0;99860;;;;
2022/05/24 01:15:01;;;;;;;0.6;0.6;;;;;;;14.8;100.0;99860;;;;
2022/05/24 01:16:00;;;;;;;0.6;0.6;;;;;;;14.7;100.0;99850;;;;
2022/05/24 01:17:02;;;;;;;0.6;0.6;;;;;;;14.7;100.0;99850;;;;
2022/05/24 01:18:00;;;;;;;0.6;0.6;;;;;;;14.6;100.0;99850;;;;
2022/05/24 01:19:04;;;;;;;0.6;0.6;;;;;;;14.6;100.0;99850;;;;
2022/05/24 01:20:00;;;;;;;0.6;0.6;;;;;;;14.5;100.0;99840;;;;
2022/05/24 01:21:02;;;;;;;0.6;0.6;;;;;;;14.5;100.0;99840;;;;
2022/05/24 01:22:08;;;;;;;0.6;0.6;;;;;;;14.6;100.0;99840;;;;
2022/05/24 01:23:08;;;;;;;0.6;0.6;;;;;;;14.6;100.0;99840;;;;
2022/05/24 01:24:10;;;;;;;0.6;0.6;;;;;;;14.4;100.0;99850;;;;
2022/05/24 01:25:00;;;;;;;0.6;0.6;;;;;;;14.4;100.0;99850;;;;
2022/05/24 01:26:06;;;;;;;0.6;0.6;;;;;;;14.4;100.0;99850;;;;
2022/05/24 01:27:02;;;;;;;1.0;1.0;;;;;;;14.4;100.0;99850;;;;
2022/05/24 01:28:01;;;;;;;1.0;1.0;;;;;;;14.6;100.0;99850;;;;
2022/05/24 01:29:03;;;;;;;1.0;1.0;;;;;;;14.6;100.0;99850;;;;
2022/05/24 01:30:00;;;;;;;1.0;1.0;;;;;;;14.6;100.0;99850;;;;
2022/05/24 01:31:01;;;;;;;1.0;1.0;;;;;;;14.6;100.0;99850;;;;
2022/05/24 01:37:00;;;;;;;1.0;1.0;;;;;;;14.4;100.0;99840;;;;
2022/05/24 01:38:02;;;;;;;1.0;1.0;;;;;;;14.4;100.0;99840;;;;
2022/05/24 01:39:02;;;;;;;1.0;1.0;;;;;;;14.4;100.0;99840;;;;
2022/05/24 01:40:02;;;;;;;1.0;1.0;;;;;;;14.3;100.0;99840;;;;
2022/05/24 01:41:00;;;;;;;1.0;1.0;;;;;;;14.3;100.0;99840;;;;
2022/05/24 01:42:00;;;;;;;1.0;1.0;;;;;;;14.4;100.0;99850;;;;
2022/05/24 01:43:00;;;;;;;1.0;1.0;;;;;;;14.4;100.0;99850;;;;
2022/05/24 01:44:00;;;;;;;1.0;1.0;;;;;;;14.3;100.0;99860;;;;
2022/05/24 01:45:00;;;;;;;1.0;1.0;;;;;;;14.3;100.0;99860;;;;
2022/05/24 01:46:03;;;;;;;1.0;1.0;;;;;;;14.1;100.0;99860;;;;
2022/05/24 01:47:00;;;;;;;0.4;0.4;;;;;;;14.1;100.0;99860;;;;
2022/05/24 01:48:03;;;;;;;0.4;0.4;;;;;;;14.2;100.0;99860;;;;
2022/05/24 01:49:02;;;;;;;0.4;0.4;;;;;;;14.2;100.0;99860;;;;
2022/05/24 01:50:02;;;;;;;0.4;0.4;;;;;;;14.2;100.0;99860;;;;
2022/05/24 01:51:01;;;;;;;0.4;0.4;;;;;;;14.2;100.0;99860;;;;
2022/05/24 01:52:06;;;;;;;0.4;0.4;;;;;;;14.2;100.0;99860;;;;
2022/05/24 01:53:03;;;;;;;0.4;0.4;;;;;;;14.2;100.0;99860;;;;
2022/05/24 01:54:07;;;;;;;0.4;0.4;;;;;;;14.2;100.0;99860;;;;
2022/05/24 01:55:10;;;;;;;0.4;0.4;;;;;;;14.2;100.0;99860;;;;
2022/05/24 01:56:00;;;;;;;0.4;0.4;;;;;;;14.1;100.0;99860;;;;
2022/05/24 01:57:05;;;;;;;0.4;0.4;;;;;;;14.1;100.0;99860;;;;
2022/05/24 01:58:03;;;;;;;0.4;0.4;;;;;;;14.1;100.0;99860;;;;
2022/05/24 01:59:01;;;;;;;0.4;0.4;;;;;;;14.1;100.0;99860;;;;
2022/05/24 02:00:01;;;;;;;0.4;0.4;;;;;;;13.9;100.0;99860;;;;
2022/05/24 02:01:08;;;;;;;0.4;0.4;;;;;;;13.9;100.0;99860;;;;
2022/05/24 02:02:00;;;;;;;0.4;0.4;;;;;;;14.2;100.0;99860;;;;
2022/05/24 02:03:00;;;;;;;0.4;0.4;;;;;;;14.2;100.0;99860;;;;
2022/05/24 02:04:01;;;;;;;0.4;0.4;;;;;;;14.1;100.0;99850;;;;
2022/05/24 02:05:00;;;;;;;0.4;0.4;;;;;;;14.1;100.0;99850;;;;
2022/05/24 02:06:10;;;;;;;0.9;0.9;;;;;;;14.0;100.0;99840;;;;
2022/05/24 02:07:02;;;;;;;0.9;0.9;;;;;;;14.0;100.0;99840;;;;
2022/05/24 02:08:00;;;;;;;0.9;0.9;;;;;;;14.1;100.0;99850;;;;
2022/05/24 02:09:00;;;;;;;0.9;0.9;;;;;;;14.1;100.0;99850;;;;
2022/05/24 02:10:00;;;;;;;0.9;0.9;;;;;;;14.1;100.0;99850;;;;
2022/05/24 02:11:02;;;;;;;0.9;0.9;;;;;;;14.1;100.0;99850;;;;
2022/05/24 02:12:02;;;;;;;0.9;0.9;;;;;;;14.0;100.0;99850;;;;
2022/05/24 02:13:01;;;;;;;0.9;0.9;;;;;;;14.0;100.0;99850;;;;
2022/05/24 02:14:00;;;;;;;0.9;0.9;;;;;;;13.9;100.0;99850;;;;
2022/05/24 02:15:02;;;;;;;0.9;0.9;;;;;;;13.9;100.0;99850;;;;
2022/05/24 02:16:02;;;;;;;0.9;0.9;;;;;;;14.0;100.0;99850;;;;
2022/05/24 02:17:03;;;;;;;0.9;0.9;;;;;;;14.0;100.0;99850;;;;
2022/05/24 02:18:10;;;;;;;0.9;0.9;;;;;;;14.0;100.0;99850;;;;
2022/05/24 02:19:01;;;;;;;0.9;0.9;;;;;;;14.0;100.0;99850;;;;
2022/05/24 02:20:01;;;;;;;0.9;0.9;;;;;;;13.8;100.0;99860;;;;
2022/05/24 02:21:01;;;;;;;0.9;0.9;;;;;;;13.8;100.0;99860;;;;
2022/05/24 02:22:03;;;;;;;0.9;0.9;;;;;;;13.8;100.0;99870;;;;
2022/05/24 02:23:00;;;;;;;0.9;0.9;;;;;;;13.8;100.0;99870;;;;
2022/05/24 02:24:00;;;;;;;0.9;0.9;;;;;;;13.8;100.0;99870;;;;
2022/05/24 02:25:06;;;;;;;0.9;0.9;;;;;;;13.8;100.0;99870;;;;
2022/05/24 02:26:00;;;;;;;0.9;0.9;;;;;;;13.8;100.0;99870;;;;
2022/05/24 02:27:01;;;;;;;0.6;0.6;;;;;;;13.8;100.0;99870;;;;
2022/05/24 02:28:00;;;;;;;0.6;0.6;;;;;;;13.9;100.0;99870;;;;
2022/05/24 02:29:01;;;;;;;0.6;0.6;;;;;;;13.9;100.0;99870;;;;
2022/05/24 02:30:00;;;;;;;0.6;0.6;;;;;;;13.9;100.0;99860;;;;
2022/05/24 02:31:01;;;;;;;0.6;0.6;;;;;;;13.9;100.0;99860;;;;
2022/05/24 02:32:00;;;;;;;0.6;0.6;;;;;;;13.7;100.0;99870;;;;
2022/05/24 02:33:00;;;;;;;0.6;0.6;;;;;;;13.7;100.0;99870;;;;
2022/05/24 02:34:00;;;;;;;0.6;0.6;;;;;;;13.7;100.0;99860;;;;
2022/05/24 02:35:00;;;;;;;0.6;0.6;;;;;;;13.7;100.0;99860;;;;
2022/05/24 02:36:00;;;;;;;0.6;0.6;;;;;;;13.7;100.0;99860;;;;
2022/05/24 02:37:00;;;;;;;0.6;0.6;;;;;;;13.7;100.0;99860;;;;
2022/05/24 02:38:00;;;;;;;0.6;0.6;;;;;;;13.6;100.0;99870;;;;
2022/05/24 02:39:00;;;;;;;0.6;0.6;;;;;;;13.6;100.0;99870;;;;
2022/05/24 02:42:00;;;;;;;0.6;0.6;;;;;;;13.5;100.0;99870;;;;
2022/05/24 02:43:00;;;;;;;0.6;0.6;;;;;;;13.5;100.0;99870;;;;
2022/05/24 02:44:03;;;;;;;0.6;0.6;;;;;;;13.6;100.0;99860;;;;
2022/05/24 02:45:00;;;;;;;0.6;0.6;;;;;;;13.6;100.0;99860;;;;
2022/05/24 02:46:00;;;;;;;1.0;1.0;;;;;;;13.6;100.0;99860;;;;
2022/05/24 02:47:00;;;;;;;1.0;1.0;;;;;;;13.6;100.0;99860;;;;
2022/05/24 02:48:00;;;;;;;1.0;1.0;;;;;;;13.7;100.0;99850;;;;
2022/05/24 02:49:00;;;;;;;1.0;1.0;;;;;;;13.7;100.0;99850;;;;
2022/05/24 02:50:00;;;;;;;1.0;1.0;;;;;;;13.6;100.0;99860;;;;
2022/05/24 02:51:00;;;;;;;1.0;1.0;;;;;;;13.6;100.0;99860;;;;
2022/05/24 02:52:00;;;;;;;1.0;1.0;;;;;;;13.4;100.0;99860;;;;
2022/05/24 02:53:00;;;;;;;1.0;1.0;;;;;;;13.4;100.0;99860;;;;
2022/05/24 02:54:00;;;;;;;1.0;1.0;;;;;;;13.5;100.0;99860;;;;
2022/05/24 02:55:00;;;;;;;1.0;1.0;;;;;;;13.5;100.0;99860;;;;
2022/05/24 02:56:01;;;;;;;1.0;1.0;;;;;;;13.5;100.0;99870;;;;
2022/05/24 02:57:01;;;;;;;1.0;1.0;;;;;;;13.5;100.0;99870;;;;
2022/05/24 02:58:00;;;;;;;1.0;1.0;;;;;;;13.4;100.0;99870;;;;
2022/05/24 02:59:00;;;;;;;1.0;1.0;;;;;;;13.4;100.0;99870;;;;
2022/05/24 03:00:00;;;;;;;1.0;1.0;;;;;;;13.5;100.0;99870;;;;
2022/05/24 03:01:00;;;;;;;1.0;1.0;;;;;;;13.5;100.0;99870;;;;
2022/05/24 03:02:03;;;;;;;1.0;1.0;;;;;;;13.5;100.0;99870;;;;
2022/05/24 03:03:00;;;;;;;1.0;1.0;;;;;;;13.5;100.0;99870;;;;
2022/05/24 03:04:01;;;;;;;1.0;1.0;;;;;;;13.6;100.0;99870;;;;
2022/05/24 03:05:01;;;;;;;1.0;1.0;;;;;;;13.6;100.0;99870;;;;
2022/05/24 03:06:00;;;;;;;1.1;1.0;;;;;;;13.5;100.0;99860;;;;
2022/05/24 03:10:00;;;;;;;1.1;1.0;;;;;;;13.6;100.0;99860;;;;
2022/05/24 03:11:00;;;;;;;1.1;1.0;;;;;;;13.6;100.0;99860;;;;
2022/05/24 03:15:00;;;;;;;1.1;1.0;;;;;;;13.6;100.0;99850;;;;
2022/05/24 03:16:07;;;;;;;1.1;1.0;;;;;;;13.7;100.0;99860;;;;
2022/05/24 03:17:00;;;;;;;1.1;1.0;;;;;;;13.7;100.0;99860;;;;
2022/05/24 03:18:00;;;;;;;1.1;1.0;;;;;;;13.7;100.0;99860;;;;
2022/05/24 03:19:00;;;;;;;1.1;1.0;;;;;;;13.7;100.0;99860;;;;
2022/05/24 03:20:00;;;;;;;1.1;1.0;;;;;;;13.6;100.0;99870;;;;
2022/05/24 03:21:00;;;;;;;1.1;1.0;;;;;;;13.6;100.0;99870;;;;
2022/05/24 03:22:00;;;;;;;1.1;1.0;;;;;;;13.6;100.0;99870;;;;
2022/05/24 03:23:02;;;;;;;1.1;1.0;;;;;;;13.6;100.0;99870;;;;
2022/05/24 03:24:00;;;;;;;1.1;1.0;;;;;;;13.6;100.0;99860;;;;
2022/05/24 03:25:00;;;;;;;1.1;1.0;;;;;;;13.6;100.0;99860;;;;
2022/05/24 03:26:00;;;;;;;0.7;0.7;;;;;;;13.5;100.0;99860;;;;
2022/05/24 03:27:00;;;;;;;0.7;0.7;;;;;;;13.5;100.0;99860;;;;
2022/05/24 03:28:01;;;;;;;0.7;0.7;;;;;;;13.7;100.0;99860;;;;
2022/05/24 03:29:00;;;;;;;0.7;0.7;;;;;;;13.7;100.0;99860;;;;
2022/05/24 03:30:00;;;;;;;0.7;0.7;;;;;;;13.6;100.0;99870;;;;
2022/05/24 03:31:02;;;;;;;0.7;0.7;;;;;;;13.6;100.0;99870;;;;
2022/05/24 03:32:00;;;;;;;0.7;0.7;;;;;;;13.6;100.0;99860;;;;
2022/05/24 03:33:00;;;;;;;0.7;0.7;;;;;;;13.6;100.0;99860;;;;
2022/05/24 03:34:00;;;;;;;0.7;0.7;;;;;;;13.6;100.0;99860;;;;
2022/05/24 03:35:02;;;;;;;0.7;0.7;;;;;;;13.6;100.0;99860;;;;
2022/05/24 03:36:00;;;;;;;0.7;0.7;;;;;;;13.6;100.0;99860;;;;
2022/05/24 03:37:00;;;;;;;0.7;0.7;;;;;;;13.6;100.0;99860;;;;
2022/05/24 03:38:00;;;;;;;0.7;0.7;;;;;;;13.6;100.0;99860;;;;
2022/05/24 03:39:00;;;;;;;0.7;0.7;;;;;;;13.6;100.0;99860;;;;
2022/05/24 03:40:00;;;;;;;0.7;0.7;;;;;;;13.6;100.0;99860;;;;
2022/05/24 03:41:00;;;;;;;0.7;0.7;;;;;;;13.6;100.0;99860;;;;
2022/05/24 03:42:00;;;;;;;0.7;0.7;;;;;;;13.7;100.0;99850;;;;
2022/05/24 03:43:01;;;;;;;0.7;0.7;;;;;;;13.7;100.0;99850;;;;
2022/05/24 03:44:00;;;;;;;0.7;0.7;;;;;;;13.6;100.0;99860;;;;
2022/05/24 03:45:00;;;;;;;0.7;0.7;;;;;;;13.6;100.0;99860;;;;
2022/05/24 03:46:01;;;;;;;0.5;0.5;;;;;;;13.6;100.0;99870;;;;
2022/05/24 03:47:00;;;;;;;0.5;0.5;;;;;;;13.6;100.0;99870;;;;
2022/05/24 03:48:00;;;;;;;0.5;0.5;;;;;;;13.6;100.0;99880;;;;
2022/05/24 03:49:00;;;;;;;0.5;0.5;;;;;;;13.6;100.0;99880;;;;
2022/05/24 03:50:00;;;;;;;0.5;0.5;;;;;;;13.5;100.0;99870;;;;
2022/05/24 03:51:00;;;;;;;0.5;0.5;;;;;;;13.5;100.0;99870;;;;
2022/05/24 03:52:00;;;;;;;0.5;0.5;;;;;;;13.5;100.0;99870;;;;
2022/05/24 03:53:01;;;;;;;0.5;0.5;;;;;;;13.5;100.0;99870;;;;
2022/05/24 03:54:00;;;;;;;0.5;0.5;;;;;;;13.5;100.0;99870;;;;
2022/05/24 03:55:00;;;;;;;0.5;0.5;;;;;;;13.5;100.0;99870;;;;
2022/05/24 03:56:00;;;;;;;0.5;0.5;;;;;;;13.5;100.0;99880;;;;
2022/05/24 03:58:00;;;;;;;0.5;0.5;;;;;;;13.4;100.0;99880;;;;
2022/05/24 03:59:00;;;;;;;0.5;0.5;;;;;;;13.4;100.0;99880;;;;
2022/05/24 04:00:00;;;;;;;0.5;0.5;;;;;;;13.5;100.0;99890;;;;
2022/05/24 04:01:00;;;;;;;0.5;0.5;;;;;;;13.5;100.0;99890;;;;
2022/05/24 04:02:00;;;;;;;0.5;0.5;;;;;;;13.6;100.0;99890;;;;
2022/05/24 04:03:00;;;;;;;0.5;0.5;;;;;;;13.6;100.0;99890;;;;
2022/05/24 04:04:00;;;;;;;0.5;0.5;;;;;;;13.7;100.0;99890;;;;
2022/05/24 04:05:00;;;;;;;0.5;0.5;;;;;;;13.7;100.0;99890;;;;
2022/05/24 04:06:00;;;;;;;0.6;0.6;;;;;;;13.6;100.0;99910;;;;
2022/05/24 04:07:00;;;;;;;0.6;0.6;;;;;;;13.6;100.0;99910;;;;
2022/05/24 04:08:01;;;;;;;0.6;0.6;;;;;;;13.7;100.0;99900;;;;
2022/05/24 04:09:00;;;;;;;0.6;0.6;;;;;;;13.7;100.0;99900;;;;
2022/05/24 04:10:01;;;;;;;0.6;0.6;;;;;;;13.6;100.0;99900;;;;
2022/05/24 04:11:02;;;;;;;0.6;0.6;;;;;;;13.6;100.0;99900;;;;
2022/05/24 04:12:00;;;;;;;0.6;0.6;;;;;;;13.6;100.0;99910;;;;
2022/05/24 04:13:00;;;;;;;0.6;0.6;;;;;;;13.6;100.0;99910;;;;
2022/05/24 04:14:00;;;;;;;0.6;0.6;;;;;;;13.6;100.0;99920;;;;
2022/05/24 04:15:06;;;;;;;0.6;0.6;;;;;;;13.6;100.0;99920;;;;
2022/05/24 04:16:00;;;;;;;0.6;0.6;;;;;;;13.6;100.0;99930;;;;
2022/05/24 04:17:00;;;;;;;0.6;0.6;;;;;;;13.6;100.0;99930;;;;
2022/05/24 04:18:00;;;;;;;0.6;0.6;;;;;;;13.4;100.0;99940;;;;
2022/05/24 04:19:00;;;;;;;0.6;0.6;;;;;;;13.4;100.0;99940;;;;
2022/05/24 04:20:00;;;;;;;0.6;0.6;;;;;;;13.4;100.0;99940;;;;
2022/05/24 04:21:00;;;;;;;0.6;0.6;;;;;;;13.4;100.0;99940;;;;
2022/05/24 04:22:00;;;;;;;0.6;0.6;;;;;;;13.5;100.0;99940;;;;
2022/05/24 04:23:00;;;;;;;0.6;0.6;;;;;;;13.5;100.0;99940;;;;
2022/05/24 04:24:00;;;;;;;0.6;0.6;;;;;;;13.6;100.0;99940;;;;
2022/05/24 04:25:00;;;;;;;0.6;0.6;;;;;;;13.6;100.0;99940;;;;
2022/05/24 04:26:03;;;;;;;1.5;1.4;;;;;;;13.6;100.0;99940;;;;
2022/05/24 04:27:00;;;;;;;1.5;1.4;;;;;;;13.6;100.0;99940;;;;
2022/05/24 04:28:00;;;;;;;1.5;1.4;;;;;;;13.7;100.0;99930;;;;
2022/05/24 04:29:00;;;;;;;1.5;1.4;;;;;;;13.7;100.0;99930;;;;
2022/05/24 04:30:00;;;;;;;1.5;1.4;;;;;;;13.7;100.0;99920;;;;
2022/05/24 04:31:00;;;;;;;1.5;1.4;;;;;;;13.7;100.0;99920;;;;
2022/05/24 04:32:00;;;;;;;1.5;1.4;;;;;;;13.7;100.0;99910;;;;
2022/05/24 04:33:00;;;;;;;1.5;1.4;;;;;;;13.7;100.0;99910;;;;
2022/05/24 04:34:00;;;;;;;1.5;1.4;;;;;;;13.7;100.0;99900;;;;
2022/05/24 04:35:00;;;;;;;1.5;1.4;;;;;;;13.7;100.0;99900;;;;
2022/05/24 04:36:00;;;;;;;1.5;1.4;;;;;;;13.8;100.0;99880;;;;
2022/05/24 04:37:03;;;;;;;1.5;1.4;;;;;;;13.8;100.0;99880;;;;
2022/05/24 04:38:00;;;;;;;1.5;1.4;;;;;;;13.9;100.0;99890;;;;
2022/05/24 04:39:00;;;;;;;1.5;1.4;;;;;;;13.9;100.0;99890;;;;
2022/05/24 04:40:00;;;;;;;1.5;1.4;;;;;;;13.6;100.0;99910;;;;
2022/05/24 04:43:00;;;;;;;1.5;1.4;;;;;;;13.5;100.0;99920;;;;
2022/05/24 04:44:00;;;;;;;1.5;1.4;;;;;;;13.6;100.0;99940;;;;
2022/05/24 04:45:03;;;;;;;1.5;1.4;;;;;;;13.6;100.0;99940;;;;
2022/05/24 04:46:00;;;;;;;0.6;0.6;;;;;;;13.5;100.0;99940;;;;
2022/05/24 04:47:07;;;;;;;0.6;0.6;;;;;;;13.5;100.0;99940;;;;
2022/05/24 04:48:00;;;;;;;0.6;0.6;;;;;;;13.6;100.0;99940;;;;
2022/05/24 04:49:00;;;;;;;0.6;0.6;;;;;;;13.6;100.0;99940;;;;
2022/05/24 04:50:01;;;;;;;0.6;0.6;;;;;;;13.7;100.0;99950;;;;
2022/05/24 04:51:00;;;;;;;0.6;0.6;;;;;;;13.7;100.0;99950;;;;
2022/05/24 04:52:00;;;;;;;0.6;0.6;;;;;;;13.7;100.0;99950;;;;
2022/05/24 04:53:00;;;;;;;0.6;0.6;;;;;;;13.7;100.0;99950;;;;
2022/05/24 04:54:00;;;;;;;0.6;0.6;;;;;;;13.6;100.0;99950;;;;
2022/05/24 04:55:00;;;;;;;0.6;0.6;;;;;;;13.6;100.0;99950;;;;
2022/05/24 04:56:00;;;;;;;0.6;0.6;;;;;;;13.7;100.0;99950;;;;
2022/05/24 04:57:00;;;;;;;0.6;0.6;;;;;;;13.7;100.0;99950;;;;
2022/05/24 04:58:00;;;;;;;0.6;0.6;;;;;;;13.5;100.0;99940;;;;
2022/05/24 04:59:00;;;;;;;0.6;0.6;;;;;;;13.5;100.0;99940;;;;
2022/05/24 05:00:00;;;;;;;0.6;0.6;;;;;;;13.7;100.0;99930;;;;
2022/05/24 05:01:00;;;;;;;0.6;0.6;;;;;;;13.7;100.0;99930;;;;
2022/05/24 05:02:00;;;;;;;0.6;0.6;;;;;;;13.6;100.0;99940;;;;
2022/05/24 05:03:06;;;;;;;0.6;0.6;;;;;;;13.6;100.0;99940;;;;
2022/05/24 05:04:00;;;;;;;0.6;0.6;;;;;;;13.5;100.0;99940;;;;
2022/05/24 05:05:00;;;;;;;0.6;0.6;;;;;;;13.5;100.0;99940;;;;
2022/05/24 05:06:00;;;;;;;0.5;0.5;;;;;;;13.6;100.0;99940;;;;
2022/05/24 05:07:00;;;;;;;0.5;0.5;;;;;;;13.6;100.0;99940;;;;
2022/05/24 05:08:00;;;;;;;0.5;0.5;;;;;;;13.5;100.0;99950;;;;
2022/05/24 05:09:00;;;;;;;0.5;0.5;;;;;;;13.5;100.0;99950;;;;
2022/05/24 05:10:00;;;;;;;0.5;0.5;;;;;;;13.5;100.0;99950;;;;
2022/05/24 05:11:00;;;;;;;0.5;0.5;;;;;;;13.5;100.0;99950;;;;
2022/05/24 05:12:01;;;;;;;0.5;0.5;;;;;;;13.6;100.0;99960;;;;
2022/05/24 05:13:00;;;;;;;0.5;0.5;;;;;;;13.6;100.0;99960;;;;
2022/05/24 05:14:00;;;;;;;0.5;0.5;;;;;;;13.6;100.0;99970;;;;
2022/05/24 05:15:00;;;;;;;0.5;0.5;;;;;;;13.6;100.0;99970;;;;
2022/05/24 05:16:00;;;;;;;0.5;0.5;;;;;;;13.4;100.0;99970;;;;
2022/05/24 05:17:00;;;;;;;0.5;0.5;;;;;;;13.4;100.0;99970;;;;
2022/05/24 05:18:09;;;;;;;0.5;0.5;;;;;;;13.4;100.0;99990;;;;
2022/05/24 05:19:00;;;;;;;0.5;0.5;;;;;;;13.4;100.0;99990;;;;
2022/05/24 05:20:01;;;;;;;0.5;0.5;;;;;;;13.3;100.0;99990;;;;
2022/05/24 05:21:00;;;;;;;0.5;0.5;;;;;;;13.3;100.0;99990;;;;
2022/05/24 05:22:02;;;;;;;0.5;0.5;;;;;;;13.4;100.0;99990;;;;
2022/05/24 05:23:00;;;;;;;0.5;0.5;;;;;;;13.4;100.0;99990;;;;
2022/05/24 05:24:00;;;;;;;0.5;0.5;;;;;;;13.4;100.0;99990;;;;
2022/05/24 05:25:00;;;;;;;0.5;0.5;;;;;;;13.4;100.0;99990;;;;
2022/05/24 05:26:00;;;;;;;0.5;0.5;;;;;;;13.3;100.0;99990;;;;
2022/05/24 05:27:00;;;;;;;0.5;0.5;;;;;;;13.3;100.0;99990;;;;
2022/05/24 05:28:00;;;;;;;0.5;0.5;;;;;;;13.4;100.0;99990;;;;
2022/05/24 05:29:00;;;;;;;0.5;0.5;;;;;;;13.4;100.0;99990;;;;
2022/05/24 05:32:00;;;;;;;0.5;0.5;;;;;;;13.5;100.0;100000;;;;
2022/05/24 05:33:00;;;;;;;0.5;0.5;;;;;;;13.5;100.0;100000;;;;
2022/05/24 05:34:00;;;;;;;0.5;0.5;;;;;;;13.4;100.0;99990;;;;
2022/05/24 05:35:00;;;;;;;0.5;0.5;;;;;;;13.4;100.0;99990;;;;
2022/05/24 05:36:00;;;;;;;0.5;0.5;;;;;;;13.4;100.0;99980;;;;
2022/05/24 05:37:04;;;;;;;0.5;0.5;;;;;;;13.4;100.0;99980;;;;
2022/05/24 05:38:00;;;;;;;0.5;0.5;;;;;;;13.5;100.0;99990;;;;
2022/05/24 05:39:00;;;;;;;0.5;0.5;;;;;;;13.5;100.0;99990;;;;
2022/05/24 05:40:02;;;;;;;0.5;0.5;;;;;;;13.4;100.0;99990;;;;
2022/05/24 05:41:00;;;;;;;0.5;0.5;;;;;;;13.4;100.0;99990;;;;
2022/05/24 05:42:01;;;;;;;0.5;0.5;;;;;;;13.6;100.0;99990;;;;
2022/05/24 05:43:00;;;;;;;0.5;0.5;;;;;;;13.6;100.0;99990;;;;
2022/05/24 05:44:00;;;;;;;0.5;0.5;;;;;;;13.5;100.0;99990;;;;
2022/05/24 05:45:00;;;;;;;0.5;0.5;;;;;;;13.5;100.0;99990;;;;
2022/05/24 05:46:00;;;;;;;0.5;0.5;;;;;;;13.4;100.0;99970;;;;
2022/05/24 05:47:00;;;;;;;0.5;0.5;;;;;;;13.4;100.0;99970;;;;
2022/05/24 05:48:00;;;;;;;0.5;0.5;;;;;;;13.4;100.0;99980;;;;
2022/05/24 05:49:05;;;;;;;0.5;0.5;;;;;;;13.4;100.0;99980;;;;
2022/05/24 05:50:00;;;;;;;0.5;0.5;;;;;;;13.6;100.0;99980;;;;
2022/05/24 05:51:00;;;;;;;0.5;0.5;;;;;;;13.6;100.0;99980;;;;
2022/05/24 05:52:00;;;;;;;0.5;0.5;;;;;;;13.7;100.0;99980;;;;
2022/05/24 05:53:03;;;;;;;0.5;0.5;;;;;;;13.7;100.0;99980;;;;
2022/05/24 05:54:00;;;;;;;0.5;0.5;;;;;;;13.6;100.0;99980;;;;
2022/05/24 05:55:00;;;;;;;0.5;0.5;;;;;;;13.6;100.0;99980;;;;
2022/05/24 05:56:00;;;;;;;0.5;0.5;;;;;;;13.6;100.0;99990;;;;
2022/05/24 05:57:00;;;;;;;0.5;0.5;;;;;;;13.6;100.0;99990;;;;
2022/05/24 05:58:00;;;;;;;0.5;0.5;;;;;;;13.6;100.0;100000;;;;
2022/05/24 05:59:00;;;;;;;0.5;0.5;;;;;;;13.6;100.0;100000;;;;
2022/05/24 06:00:00;;;;;;;0.5;0.5;;;;;;;13.5;100.0;100010;;;;
2022/05/24 06:01:01;;;;;;;0.5;0.5;;;;;;;13.5;100.0;100010;;;;
2022/05/24 06:02:03;;;;;;;0.5;0.5;;;;;;;13.5;100.0;100000;;;;
2022/05/24 06:03:01;;;;;;;0.5;0.5;;;;;;;13.5;100.0;100000;;;;
2022/05/24 06:04:00;;;;;;;0.5;0.5;;;;;;;13.6;100.0;100000;;;;
2022/05/24 06:05:00;;;;;;;0.5;0.5;;;;;;;13.6;100.0;100000;;;;
2022/05/24 06:06:00;;;;;;;1.7;1.1;;;;;;;13.6;100.0;100010;;;;
2022/05/24 06:07:00;;;;;;;1.7;1.1;;;;;;;13.6;100.0;100010;;;;
2022/05/24 06:08:00;;;;;;;1.7;1.1;;;;;;;13.6;100.0;100020;;;;
2022/05/24 06:09:00;;;;;;;1.7;1.1;;;;;;;13.6;100.0;100020;;;;
2022/05/24 06:10:00;;;;;;;1.7;1.1;;;;;;;13.6;100.0;100040;;;;
2022/05/24 06:11:00;;;;;;;1.7;1.1;;;;;;;13.6;100.0;100040;;;;
2022/05/24 06:12:00;;;;;;;1.7;1.1;;;;;;;13.6;100.0;100040;;;;
2022/05/24 06:13:00;;;;;;;1.7;1.1;;;;;;;13.6;100.0;100040;;;;
2022/05/24 06:14:06;;;;;;;1.7;1.1;;;;;;;13.6;100.0;100040;;;;
2022/05/24 06:15:00;;;;;;;1.7;1.1;;;;;;;13.6;100.0;100040;;;;
2022/05/24 06:16:01;;;;;;;1.7;1.1;;;;;;;13.6;100.0;100040;;;;
2022/05/24 06:17:00;;;;;;;1.7;1.1;;;;;;;13.6;100.0;100040;;;;
2022/05/24 06:18:00;;;;;;;1.7;1.1;;;;;;;13.7;100.0;100050;;;;
2022/05/24 06:19:01;;;;;;;1.7;1.1;;;;;;;13.7;100.0;100050;;;;
2022/05/24 06:20:00;;;;;;;1.7;1.1;;;;;;;13.6;100.0;100040;;;;
2022/05/24 06:21:00;;;;;;;1.7;1.1;;;;;;;13.6;100.0;100040;;;;
2022/05/24 06:22:00;;;;;;;1.7;1.1;;;;;;;13.6;100.0;100050;;;;
2022/05/24 06:23:00;;;;;;;1.7;1.1;;;;;;;13.6;100.0;100050;;;;
2022/05/24 06:24:01;;;;;;;1.7;1.1;;;;;;;13.6;100.0;100040;;;;
2022/05/24 06:25:00;;;;;;;1.7;1.1;;;;;;;13.6;100.0;100040;;;;
2022/05/24 06:26:00;;;;;;;0.8;0.7;;;;;;;13.6;100.0;100050;;;;
2022/05/24 06:27:00;;;;;;;0.8;0.7;;;;;;;13.6;100.0;100050;;;;
2022/05/24 06:28:00;;;;;;;0.8;0.7;;;;;;;13.7;100.0;100040;;;;
2022/05/24 06:29:01;;;;;;;0.8;0.7;;;;;;;13.7;100.0;100040;;;;
2022/05/24 06:30:00;;;;;;;0.8;0.7;;;;;;;13.7;100.0;100040;;;;
2022/05/24 06:31:00;;;;;;;0.8;0.7;;;;;;;13.7;100.0;100040;;;;
2022/05/24 06:32:01;;;;;;;0.8;0.7;;;;;;;13.8;100.0;100040;;;;
2022/05/24 06:33:00;;;;;;;0.8;0.7;;;;;;;13.8;100.0;100040;;;;
2022/05/24 06:34:00;;;;;;;0.8;0.7;;;;;;;13.6;100.0;100040;;;;
2022/05/24 06:35:00;;;;;;;0.8;0.7;;;;;;;13.6;100.0;100040;;;;
2022/05/24 06:36:00;;;;;;;0.8;0.7;;;;;;;13.7;100.0;100050;;;;
2022/05/24 06:37:00;;;;;;;0.8;0.7;;;;;;;13.7;100.0;100050;;;;
2022/05/24 06:38:00;;;;;;;0.8;0.7;;;;;;;13.6;100.0;100040;;;;
2022/05/24 06:39:00;;;;;;;0.8;0.7;;;;;;;13.6;100.0;100040;;;;
2022/05/24 06:40:00;;;;;;;0.8;0.7;;;;;;;13.8;100.0;100050;;;;
2022/05/24 06:41:00;;;;;;;0.8;0.7;;;;;;;13.8;100.0;100050;;;;
2022/05/24 06:42:00;;;;;;;0.8;0.7;;;;;;;13.8;100.0;100040;;;;
2022/05/24 06:43:01;;;;;;;0.8;0.7;;;;;;;13.8;100.0;100040;;;;
2022/05/24 06:44:00;;;;;;;0.8;0.7;;;;;;;13.9;100.0;100050;;;;
2022/05/24 06:45:01;;;;;;;0.8;0.7;;;;;;;13.9;100.0;100050;;;;
2022/05/24 06:46:00;;;;;;;0.5;0.5;;;;;;;14.0;100.0;100050;;;;
2022/05/24 06:47:00;;;;;;;0.5;0.5;;;;;;;14.0;100.0;100050;;;;